createdAt,value
2019-04-25T00:00:11.692Z,0.70
2019-04-25T00:01:44.774Z,0.93
2019-04-25T00:03:17.534Z,0.80
2019-04-25T00:04:51.438Z,0.70
2019-04-25T00:06:24.042Z,0.70
2019-04-25T00:07:56.411Z,0.75
2019-04-25T00:09:28.825Z,0.80
2019-04-25T00:11:01.717Z,0.90
2019-04-25T00:12:35.891Z,0.80
2019-04-25T00:14:08.345Z,1.10
2019-04-25T00:15:41.948Z,0.88
2019-04-25T00:17:14.723Z,1.00
2019-04-25T00:18:47.066Z,0.88
2019-04-25T00:20:19.403Z,0.80
2019-04-25T00:21:51.860Z,0.72
2019-04-25T00:23:24.451Z,0.62
2019-04-25T00:24:56.780Z,0.80
2019-04-25T00:26:29.114Z,0.80
2019-04-25T00:28:01.882Z,0.80
2019-04-25T00:29:34.411Z,0.60
2019-04-25T00:31:06.820Z,0.90
2019-04-25T00:32:39.256Z,0.80
2019-04-25T00:34:12.085Z,0.90
2019-04-25T00:35:45.674Z,0.60
2019-04-25T00:37:18.285Z,0.82
2019-04-25T00:38:51.998Z,0.78
2019-04-25T00:40:24.854Z,0.90
2019-04-25T00:41:57.270Z,1.37
2019-04-25T00:43:31.352Z,1.00
2019-04-25T00:45:03.720Z,0.80
2019-04-25T00:46:36.098Z,0.75
2019-04-25T00:48:08.539Z,0.90
2019-04-25T00:49:43.073Z,1.10
2019-04-25T00:51:15.056Z,0.95
2019-04-25T00:52:48.263Z,1.00
2019-04-25T00:54:22.557Z,0.90
2019-04-25T00:55:55.369Z,1.17
2019-04-25T00:57:27.770Z,1.12
2019-04-25T00:59:01.855Z,0.78
2019-04-25T01:00:34.481Z,0.90
2019-04-25T01:02:09.209Z,1.20
2019-04-25T01:03:43.265Z,0.95
2019-04-25T01:05:15.382Z,0.85
2019-04-25T01:06:47.795Z,0.93
2019-04-25T01:08:21.899Z,1.20
2019-04-25T01:09:54.711Z,0.87
2019-04-25T01:11:27.142Z,0.93
2019-04-25T01:13:01.110Z,1.40
2019-04-25T01:14:33.794Z,0.97
2019-04-25T01:16:06.271Z,1.03
2019-04-25T01:17:38.781Z,1.02
2019-04-25T01:19:11.340Z,1.00
2019-04-25T01:20:43.739Z,1.97
2019-04-25T01:22:16.168Z,0.90
2019-04-25T01:23:49.349Z,0.80
2019-04-25T01:25:23.364Z,1.02
2019-04-25T01:26:55.990Z,1.00
2019-04-25T01:28:29.504Z,0.95
2019-04-25T01:30:01.975Z,1.00
2019-04-25T01:31:34.387Z,1.10
2019-04-25T01:33:06.873Z,0.90
2019-04-25T01:34:39.295Z,0.70
2019-04-25T01:36:13.280Z,1.05
2019-04-25T01:37:47.355Z,1.00
2019-04-25T01:39:19.836Z,0.93
2019-04-25T01:40:53.412Z,0.90
2019-04-25T01:42:30.070Z,1.10
2019-04-25T01:44:01.518Z,0.95
2019-04-25T01:45:34.144Z,0.80
2019-04-25T01:47:06.488Z,1.20
2019-04-25T01:48:38.857Z,0.93
2019-04-25T01:50:11.576Z,1.30
2019-04-25T01:51:44.079Z,1.00
2019-04-25T01:53:16.424Z,0.95
2019-04-25T01:54:49.293Z,1.00
2019-04-25T01:56:22.982Z,1.30
2019-04-25T01:57:56.003Z,1.07
2019-04-25T01:59:28.412Z,1.20
2019-04-25T02:01:00.750Z,0.95
2019-04-25T02:02:33.621Z,1.17
2019-04-25T02:04:06.091Z,0.90
2019-04-25T02:05:40.109Z,1.10
2019-04-25T02:07:13.512Z,1.00
2019-04-25T02:08:46.155Z,1.30
2019-04-25T02:10:18.580Z,1.10
2019-04-25T02:11:51.042Z,1.00
2019-04-25T02:13:23.699Z,1.00
2019-04-25T02:14:56.913Z,1.00
2019-04-25T02:16:30.081Z,0.90
2019-04-25T02:18:03.803Z,0.90
2019-04-25T02:19:36.304Z,1.00
2019-04-25T02:21:08.707Z,1.20
2019-04-25T02:22:41.058Z,1.00
2019-04-25T02:24:13.706Z,1.07
2019-04-25T02:25:46.336Z,1.20
2019-04-25T02:27:18.783Z,1.10
2019-04-25T02:28:52.403Z,0.87
2019-04-25T02:30:25.545Z,1.40
2019-04-25T02:32:02.030Z,1.20
2019-04-25T02:33:33.953Z,1.00
2019-04-25T02:35:09.406Z,0.90
2019-04-25T02:36:40.264Z,1.00
2019-04-25T02:38:16.589Z,1.20
2019-04-25T02:39:46.715Z,1.27
2019-04-25T02:41:19.217Z,1.00
2019-04-25T02:42:54.177Z,1.23
2019-04-25T02:44:25.656Z,1.00
2019-04-25T02:46:00.019Z,1.27
2019-04-25T02:47:34.292Z,1.10
2019-04-25T02:49:08.816Z,1.30
2019-04-25T02:50:40.324Z,1.07
2019-04-25T02:52:15.267Z,1.10
2019-04-25T02:53:46.693Z,1.20
2019-04-25T02:57:25.518Z,1.10
2019-04-25T02:58:58.482Z,1.20
2019-04-25T03:09:25.134Z,1.20
2019-04-25T03:10:58.690Z,1.20
2019-04-25T03:12:34.414Z,1.10
2019-04-25T03:14:08.237Z,1.60
2019-04-25T03:15:39.920Z,1.13
2019-04-25T03:17:14.239Z,1.30
2019-04-25T03:18:46.434Z,1.20
2019-04-25T03:20:18.775Z,1.03
2019-04-25T03:21:51.357Z,1.30
2019-04-25T03:23:24.521Z,1.20
2019-04-25T03:24:56.996Z,1.27
2019-04-25T03:26:39.830Z,1.10
2019-04-25T03:28:04.984Z,1.10
2019-04-25T03:29:37.679Z,1.30
2019-04-25T03:31:16.080Z,1.10
2019-04-25T03:32:45.077Z,1.17
2019-04-25T03:34:20.520Z,1.27
2019-04-25T03:35:53.243Z,1.57
2019-04-25T03:37:25.872Z,1.17
2019-04-25T03:38:58.425Z,1.40
2019-04-25T03:40:30.784Z,1.13
2019-04-25T03:42:04.903Z,1.10
2019-04-25T03:43:37.543Z,1.10
2019-04-25T03:45:10.767Z,1.33
2019-04-25T03:46:43.850Z,1.27
2019-04-25T03:48:16.428Z,1.13
2019-04-25T03:49:48.821Z,1.37
2019-04-25T03:51:21.236Z,1.23
2019-04-25T03:52:54.020Z,1.47
2019-04-25T03:54:26.597Z,1.43
2019-04-25T03:55:59.124Z,1.90
2019-04-25T03:57:33.100Z,1.60
2019-04-25T03:59:06.435Z,1.40
2019-04-25T04:00:39.739Z,1.67
2019-04-25T04:02:13.496Z,1.70
2019-04-25T04:03:46.343Z,1.27
2019-04-25T04:05:18.867Z,1.40
2019-04-25T04:06:51.227Z,1.30
2019-04-25T04:08:24.300Z,1.53
2019-04-25T04:09:57.808Z,1.40
2019-04-25T04:11:30.211Z,1.20
2019-04-25T04:13:04.213Z,1.43
2019-04-25T04:14:36.826Z,1.37
2019-04-25T04:16:10.523Z,1.30
2019-04-25T04:17:43.824Z,1.50
2019-04-25T04:19:16.528Z,1.30
2019-04-25T04:20:49.055Z,1.37
2019-04-25T04:22:21.552Z,1.53
2019-04-25T04:23:55.010Z,1.67
2019-04-25T04:25:28.020Z,1.40
2019-04-25T04:27:03.669Z,1.30
2019-04-25T04:28:34.563Z,1.50
2019-04-25T04:30:07.942Z,1.57
2019-04-25T04:31:40.645Z,1.60
2019-04-25T04:33:26.040Z,1.43
2019-04-25T04:34:47.355Z,1.80
2019-04-25T04:36:19.684Z,1.20
2019-04-25T04:37:52.163Z,1.70
2019-04-25T04:39:24.700Z,1.40
2019-04-25T04:40:57.027Z,1.70
2019-04-25T04:42:29.528Z,1.50
2019-04-25T04:44:01.955Z,1.63
2019-04-25T04:45:34.561Z,1.60
2019-04-25T04:47:08.472Z,2.40
2019-04-25T04:48:40.990Z,2.93
2019-04-25T04:50:14.471Z,2.37
2019-04-25T04:51:47.646Z,1.50
2019-04-25T04:53:20.057Z,1.87
2019-04-25T04:55:03.698Z,1.50
2019-04-25T04:56:26.681Z,1.40
2019-04-25T04:58:01.333Z,1.53
2019-04-25T04:59:33.778Z,1.60
2019-04-25T05:01:06.406Z,1.67
2019-04-25T05:02:38.819Z,1.80
2019-04-25T05:04:11.171Z,1.57
2019-04-25T05:05:44.056Z,1.70
2019-04-25T05:07:17.454Z,1.90
2019-04-25T05:08:50.010Z,1.73
2019-04-25T05:10:23.660Z,1.70
2019-04-25T05:11:56.780Z,1.47
2019-04-25T05:13:29.187Z,1.43
2019-04-25T05:15:01.654Z,1.60
2019-04-25T05:16:34.152Z,2.03
2019-04-25T05:18:08.291Z,1.70
2019-04-25T05:19:40.727Z,1.50
2019-04-25T05:21:14.836Z,1.43
2019-04-25T05:22:47.334Z,1.70
2019-04-25T05:24:20.814Z,2.73
2019-04-25T05:25:53.938Z,2.10
2019-04-25T05:27:37.149Z,1.93
2019-04-25T05:29:01.600Z,1.80
2019-04-25T05:30:34.026Z,1.47
2019-04-25T05:32:06.460Z,1.90
2019-04-25T05:33:38.976Z,1.73
2019-04-25T05:35:12.852Z,1.80
2019-04-25T05:36:45.493Z,1.50
2019-04-25T05:38:18.163Z,2.50
2019-04-25T05:39:50.592Z,1.80
2019-04-25T05:41:24.409Z,1.40
2019-04-25T05:42:57.424Z,1.55
2019-04-25T05:44:30.155Z,1.80
2019-04-25T05:46:03.365Z,1.50
2019-04-25T05:47:35.934Z,1.40
2019-04-25T05:49:08.391Z,1.40
2019-04-25T05:50:41.799Z,1.27
2019-04-25T05:52:33.461Z,2.17
2019-04-25T05:54:18.931Z,1.20
2019-04-25T05:55:51.395Z,1.43
2019-04-25T05:57:24.904Z,1.43
2019-04-25T05:58:57.615Z,1.47
2019-04-25T06:00:30.179Z,1.57
2019-04-25T06:02:03.931Z,1.20
2019-04-25T06:03:36.421Z,1.30
2019-04-25T06:05:09.400Z,1.13
2019-04-25T06:06:42.086Z,1.17
2019-04-25T06:08:14.633Z,1.27
2019-04-25T06:09:47.023Z,1.10
2019-04-25T06:11:19.588Z,0.97
2019-04-25T06:12:53.551Z,0.87
2019-04-25T06:14:26.274Z,1.20
2019-04-25T06:16:00.446Z,1.00
2019-04-25T06:17:34.306Z,1.03
2019-04-25T06:19:14.260Z,0.93
2019-04-25T06:20:41.275Z,1.13
2019-04-25T06:22:20.915Z,1.27
2019-04-25T06:23:54.437Z,1.00
2019-04-25T06:25:31.822Z,1.30
2019-04-25T06:27:01.269Z,1.30
2019-04-25T06:28:34.684Z,0.83
2019-04-25T06:30:07.230Z,0.82
2019-04-25T06:31:39.789Z,0.80
2019-04-25T06:33:13.932Z,0.70
2019-04-25T06:34:46.319Z,0.90
2019-04-25T06:36:18.771Z,0.80
2019-04-25T06:37:51.240Z,0.70
2019-04-25T06:39:24.380Z,0.70
2019-04-25T06:40:57.670Z,0.80
2019-04-25T06:42:30.299Z,0.85
2019-04-25T06:44:04.037Z,0.70
2019-04-25T06:45:36.638Z,0.60
2019-04-25T06:47:09.090Z,0.73
2019-04-25T06:48:41.496Z,0.95
2019-04-25T06:50:15.697Z,1.00
2019-04-25T06:51:48.378Z,0.80
2019-04-25T06:53:21.662Z,1.02
2019-04-25T06:54:54.919Z,0.70
2019-04-25T06:56:27.598Z,0.70
2019-04-25T06:58:10.241Z,0.75
2019-04-25T06:59:40.905Z,0.90
2019-04-25T07:01:15.014Z,1.02
2019-04-25T07:02:56.055Z,0.90
2019-04-25T07:04:29.230Z,0.78
2019-04-25T07:06:03.166Z,0.80
2019-04-25T07:07:35.950Z,0.70
2019-04-25T07:09:08.507Z,0.90
2019-04-25T07:10:41.271Z,0.95
2019-04-25T07:12:14.035Z,1.00
2019-04-25T07:13:46.649Z,1.20
2019-04-25T07:15:20.348Z,0.70
2019-04-25T07:16:53.262Z,0.82
2019-04-25T07:18:30.535Z,0.75
2019-04-25T07:19:59.928Z,0.80
2019-04-25T07:21:32.363Z,0.82
2019-04-25T07:23:04.850Z,0.88
2019-04-25T07:24:37.236Z,0.60
2019-04-25T07:26:09.650Z,0.70
2019-04-25T07:27:43.159Z,0.80
2019-04-25T07:29:16.253Z,0.75
2019-04-25T07:30:52.188Z,0.90
2019-04-25T07:32:24.614Z,0.75
2019-04-25T07:33:56.912Z,0.70
2019-04-25T07:35:29.559Z,0.80
2019-04-25T07:37:03.412Z,0.68
2019-04-25T07:38:36.461Z,0.95
2019-04-25T07:40:08.991Z,0.53
2019-04-25T07:41:41.392Z,0.90
2019-04-25T07:43:13.924Z,0.75
2019-04-25T07:45:01.792Z,0.80
2019-04-25T07:46:37.435Z,0.90
2019-04-25T07:48:11.444Z,1.12
2019-04-25T07:49:43.960Z,0.80
2019-04-25T07:51:16.662Z,0.60
2019-04-25T07:52:49.224Z,0.80
2019-04-25T07:54:24.174Z,1.00
2019-04-25T07:55:57.740Z,1.20
2019-04-25T07:57:30.195Z,0.82
2019-04-25T07:59:03.839Z,1.25
2019-04-25T08:00:37.594Z,0.90
2019-04-25T08:02:10.401Z,0.85
2019-04-25T08:03:44.643Z,0.82
2019-04-25T08:05:17.024Z,0.72
2019-04-25T08:06:49.519Z,0.72
2019-04-25T08:08:23.464Z,0.78
2019-04-25T08:09:56.015Z,0.90
2019-04-25T08:11:29.814Z,0.72
2019-04-25T08:13:03.268Z,1.10
2019-04-25T08:14:37.298Z,0.80
2019-04-25T08:16:10.152Z,1.00
2019-04-25T08:17:44.046Z,1.00
2019-04-25T08:19:17.054Z,0.98
2019-04-25T08:20:53.250Z,1.37
2019-04-25T08:22:25.904Z,0.90
2019-04-25T08:23:58.644Z,0.60
2019-04-25T08:25:31.117Z,0.72
2019-04-25T08:27:03.601Z,1.25
2019-04-25T08:28:49.551Z,0.98
2019-04-25T08:30:10.260Z,0.80
2019-04-25T08:31:43.944Z,1.00
2019-04-25T08:33:16.661Z,0.82
2019-04-25T08:34:49.176Z,0.93
2019-04-25T08:36:23.267Z,1.02
2019-04-25T08:37:56.204Z,1.10
2019-04-25T08:39:30.325Z,1.10
2019-04-25T08:41:04.084Z,0.78
2019-04-25T08:42:37.961Z,1.00
2019-04-25T08:44:10.660Z,0.90
2019-04-25T08:45:44.310Z,1.07
2019-04-25T08:47:20.000Z,1.05
2019-04-25T08:48:53.914Z,0.93
2019-04-25T08:50:31.155Z,0.80
2019-04-25T08:52:00.650Z,0.80
2019-04-25T08:53:35.317Z,0.98
2019-04-25T08:55:07.527Z,1.15
2019-04-25T08:56:42.471Z,1.07
2019-04-25T08:58:15.963Z,1.07
2019-04-25T08:59:52.658Z,1.10
2019-04-25T09:01:24.288Z,1.15
2019-04-25T09:02:56.979Z,1.15
2019-04-25T09:04:29.403Z,1.02
2019-04-25T09:06:03.391Z,1.42
2019-04-25T09:07:37.753Z,1.07
2019-04-25T09:09:10.715Z,1.10
2019-04-25T09:10:43.688Z,1.20
2019-04-25T09:12:17.345Z,1.05
2019-04-25T09:13:49.759Z,0.80
2019-04-25T09:15:22.115Z,0.90
2019-04-25T09:16:54.591Z,1.20
2019-04-25T09:18:27.130Z,0.75
2019-04-25T09:19:59.759Z,1.00
2019-04-25T09:21:36.874Z,1.20
2019-04-25T09:23:10.011Z,1.12
2019-04-25T09:24:44.103Z,0.90
2019-04-25T09:26:16.950Z,0.90
2019-04-25T09:27:49.934Z,0.90
2019-04-25T09:29:23.501Z,0.85
2019-04-25T09:30:57.879Z,1.00
2019-04-25T09:32:33.693Z,1.00
2019-04-25T09:34:06.108Z,0.82
2019-04-25T09:35:39.574Z,0.95
2019-04-25T09:37:12.256Z,0.80
2019-04-25T09:38:48.494Z,0.90
2019-04-25T09:40:20.708Z,0.95
2019-04-25T09:41:53.524Z,1.00
2019-04-25T09:43:26.223Z,0.70
2019-04-25T09:44:58.872Z,0.82
2019-04-25T09:46:31.580Z,0.93
2019-04-25T09:48:04.746Z,1.07
2019-04-25T09:49:38.000Z,0.90
2019-04-25T09:51:10.716Z,0.90
2019-04-25T09:52:44.375Z,0.80
2019-04-25T09:54:19.115Z,1.10
2019-04-25T09:55:51.520Z,0.90
2019-04-25T09:57:26.245Z,1.00
2019-04-25T09:58:58.684Z,1.05
2019-04-25T10:00:31.147Z,1.12
2019-04-25T10:02:06.222Z,1.07
2019-04-25T10:03:38.693Z,1.15
2019-04-25T10:05:11.296Z,1.02
2019-04-25T10:06:44.984Z,1.60
2019-04-25T10:08:18.325Z,1.40
2019-04-25T10:09:50.847Z,1.30
2019-04-25T10:11:23.794Z,9.45
2019-04-25T10:12:56.420Z,4.70
2019-04-25T10:14:29.159Z,2.72
2019-04-25T10:16:01.544Z,2.22
2019-04-25T10:17:34.019Z,1.42
2019-04-25T10:19:06.424Z,1.40
2019-04-25T10:20:41.420Z,1.25
2019-04-25T10:22:13.684Z,1.02
2019-04-25T10:23:46.808Z,1.10
2019-04-25T10:25:19.378Z,1.50
2019-04-25T10:26:54.379Z,1.35
2019-04-25T10:28:25.897Z,1.30
2019-04-25T10:29:58.278Z,1.55
2019-04-25T10:31:30.866Z,1.35
2019-04-25T10:33:04.056Z,0.80
2019-04-25T10:34:36.692Z,0.70
2019-04-25T10:36:09.116Z,0.80
2019-04-25T10:37:41.536Z,0.80
2019-04-25T10:39:14.726Z,0.78
2019-04-25T10:40:47.645Z,0.88
2019-04-25T10:42:20.089Z,0.70
2019-04-25T10:43:55.891Z,0.95
2019-04-25T10:45:26.928Z,1.00
2019-04-25T10:46:59.298Z,1.27
2019-04-25T10:48:31.988Z,1.62
2019-04-25T10:50:04.764Z,1.35
2019-04-25T10:51:37.124Z,0.90
2019-04-25T10:53:09.472Z,1.10
2019-04-25T10:54:41.952Z,1.25
2019-04-25T10:56:14.399Z,1.15
2019-04-25T10:57:46.824Z,1.00
2019-04-25T10:59:19.295Z,0.90
2019-04-25T11:00:52.815Z,1.12
2019-04-25T11:02:25.352Z,0.90
2019-04-25T11:03:57.716Z,1.15
2019-04-25T11:05:30.188Z,0.80
2019-04-25T11:07:03.742Z,0.80
2019-04-25T11:08:36.438Z,0.98
2019-04-25T11:10:09.236Z,1.07
2019-04-25T11:11:41.641Z,0.78
2019-04-25T11:13:14.396Z,1.07
2019-04-25T11:14:46.844Z,0.68
2019-04-25T11:16:19.176Z,0.80
2019-04-25T11:17:54.832Z,0.78
2019-04-25T11:19:28.583Z,0.90
2019-04-25T11:21:03.921Z,0.62
2019-04-25T11:22:35.851Z,0.82
2019-04-25T11:24:08.270Z,0.60
2019-04-25T11:25:41.455Z,0.70
2019-04-25T11:27:14.167Z,0.78
2019-04-25T11:28:46.595Z,0.75
2019-04-25T11:30:19.212Z,0.70
2019-04-25T11:31:51.610Z,0.80
2019-04-25T11:33:24.666Z,0.70
2019-04-25T11:34:57.383Z,0.90
2019-04-25T11:36:30.078Z,0.80
2019-04-25T11:38:03.452Z,0.78
2019-04-25T11:39:36.094Z,0.62
2019-04-25T11:41:09.402Z,0.70
2019-04-25T11:42:43.206Z,0.50
2019-04-25T11:44:16.296Z,0.80
2019-04-25T11:45:56.011Z,0.88
2019-04-25T11:47:29.590Z,0.50
2019-04-25T11:49:02.054Z,0.62
2019-04-25T11:50:36.914Z,0.82
2019-04-25T11:52:08.588Z,0.57
2019-04-25T11:53:40.999Z,0.60
2019-04-25T11:55:14.331Z,0.60
2019-04-25T11:56:47.363Z,0.70
2019-04-25T11:58:19.928Z,0.60
2019-04-25T11:59:52.467Z,0.70
2019-04-25T12:01:24.912Z,0.60
2019-04-25T12:02:57.380Z,0.70
2019-04-25T12:04:29.719Z,0.40
2019-04-25T12:06:02.236Z,0.78
2019-04-25T12:07:34.716Z,0.47
2019-04-25T12:09:07.132Z,0.60
2019-04-25T12:10:39.570Z,0.50
2019-04-25T12:12:11.979Z,0.53
2019-04-25T12:13:45.981Z,0.60
2019-04-25T12:15:36.663Z,0.68
2019-04-25T12:17:12.601Z,0.50
2019-04-25T12:18:47.985Z,0.53
2019-04-25T12:20:19.746Z,0.60
2019-04-25T12:21:53.795Z,0.37
2019-04-25T12:23:26.491Z,0.50
2019-04-25T12:24:59.025Z,0.60
2019-04-25T12:26:33.584Z,0.50
2019-04-25T12:28:05.824Z,0.50
2019-04-25T12:29:38.893Z,0.60
2019-04-25T12:31:11.454Z,0.60
2019-04-25T12:32:44.227Z,0.50
2019-04-25T12:34:16.751Z,0.50
2019-04-25T12:35:50.052Z,0.60
2019-04-25T12:37:23.544Z,0.57
2019-04-25T12:38:56.763Z,0.60
2019-04-25T12:40:29.166Z,0.55
2019-04-25T12:42:01.619Z,0.50
2019-04-25T12:43:34.093Z,0.50
2019-04-25T12:45:06.522Z,0.70
2019-04-25T12:46:38.932Z,0.68
2019-04-25T12:48:11.548Z,0.70
2019-04-25T12:49:46.642Z,0.68
2019-04-25T12:51:19.241Z,0.70
2019-04-25T12:52:53.310Z,0.70
2019-04-25T12:54:25.935Z,0.70
2019-04-25T12:56:16.761Z,0.75
2019-04-25T12:58:08.928Z,0.65
2019-04-25T12:59:44.946Z,0.40
2019-04-25T13:01:16.379Z,0.60
2019-04-25T13:02:48.820Z,0.60
2019-04-25T13:04:21.215Z,0.70
2019-04-25T13:05:54.056Z,0.53
2019-04-25T13:07:26.623Z,0.40
2019-04-25T13:08:59.494Z,0.70
2019-04-25T13:10:33.266Z,0.65
2019-04-25T13:12:05.982Z,0.50
2019-04-25T13:13:38.418Z,0.60
2019-04-25T13:15:11.129Z,0.50
2019-04-25T13:16:44.349Z,0.70
2019-04-25T13:18:16.906Z,0.70
2019-04-25T13:19:49.451Z,0.40
2019-04-25T13:21:23.404Z,1.00
2019-04-25T13:22:55.953Z,0.70
2019-04-25T13:24:28.463Z,0.60
2019-04-25T13:26:01.626Z,0.50
2019-04-25T13:27:34.254Z,0.55
2019-04-25T13:29:06.849Z,0.82
2019-04-25T13:30:41.158Z,0.60
2019-04-25T13:32:13.219Z,0.75
2019-04-25T13:33:45.643Z,0.70
2019-04-25T13:35:18.079Z,1.07
2019-04-25T13:36:50.481Z,0.72
2019-04-25T13:38:22.871Z,0.60
2019-04-25T13:39:55.329Z,0.88
2019-04-25T13:41:27.676Z,0.85
2019-04-25T13:43:00.124Z,0.80
2019-04-25T13:44:34.177Z,0.80
2019-04-25T13:46:06.703Z,0.60
2019-04-25T13:47:39.036Z,0.80
2019-04-25T13:49:11.679Z,0.70
2019-04-25T13:50:44.394Z,0.68
2019-04-25T13:52:17.787Z,0.98
2019-04-25T13:53:50.356Z,0.90
2019-04-25T13:55:23.971Z,0.95
2019-04-25T13:56:56.868Z,0.80
2019-04-25T13:58:30.768Z,0.80
2019-04-25T14:00:04.122Z,0.80
2019-04-25T14:01:36.659Z,0.78
2019-04-25T14:03:09.069Z,0.93
2019-04-25T14:04:41.500Z,0.40
2019-04-25T14:06:13.904Z,0.70
2019-04-25T14:07:46.366Z,0.90
2019-04-25T14:09:18.703Z,0.70
2019-04-25T14:10:51.139Z,0.82
2019-04-25T14:12:26.849Z,0.80
2019-04-25T14:13:58.163Z,0.62
2019-04-25T14:15:30.663Z,0.68
2019-04-25T14:17:06.856Z,0.80
2019-04-25T14:18:37.079Z,0.90
2019-04-25T14:20:09.532Z,0.57
2019-04-25T14:21:43.410Z,0.75
2019-04-25T14:23:16.085Z,0.70
2019-04-25T14:24:49.018Z,0.70
2019-04-25T14:26:22.966Z,1.10
2019-04-25T14:27:55.594Z,0.70
2019-04-25T14:29:28.273Z,0.98
2019-04-25T14:31:00.893Z,0.90
2019-04-25T14:32:33.960Z,0.60
2019-04-25T14:34:07.550Z,1.02
2019-04-25T14:35:40.122Z,0.70
2019-04-25T14:37:12.462Z,1.00
2019-04-25T14:38:44.918Z,1.00
2019-04-25T14:40:17.325Z,1.00
2019-04-25T14:41:49.697Z,0.88
2019-04-25T14:43:22.511Z,0.90
2019-04-25T14:44:55.205Z,0.80
2019-04-25T14:46:27.829Z,0.78
2019-04-25T14:48:00.293Z,0.80
2019-04-25T14:49:32.915Z,0.98
2019-04-25T14:51:05.487Z,0.80
2019-04-25T14:52:38.678Z,1.10
2019-04-25T14:54:11.167Z,1.10
2019-04-25T14:55:49.371Z,0.80
2019-04-25T14:59:30.401Z,1.10
2019-04-25T15:01:42.856Z,1.02
2019-04-25T15:03:29.746Z,0.93
2019-04-25T15:05:04.551Z,0.85
2019-04-25T15:08:40.588Z,1.07
2019-04-25T15:12:23.579Z,0.85
2019-04-25T15:13:56.156Z,1.00
2019-04-25T15:15:29.322Z,0.70
2019-04-25T15:17:01.924Z,0.82
2019-04-25T15:18:46.102Z,0.88
2019-04-25T15:20:17.234Z,1.05
2019-04-25T15:21:46.463Z,0.90
2019-04-25T15:23:24.004Z,0.90
2019-04-25T15:24:56.328Z,1.02
2019-04-25T15:26:29.032Z,0.93
2019-04-25T15:28:01.496Z,0.90
2019-04-25T15:29:42.435Z,1.25
2019-04-25T15:31:14.859Z,0.90
2019-04-25T15:32:48.584Z,1.00
2019-04-25T15:34:21.303Z,0.80
2019-04-25T15:35:54.989Z,1.00
2019-04-25T15:37:27.919Z,1.00
2019-04-25T15:39:00.263Z,1.17
2019-04-25T15:40:34.426Z,0.80
2019-04-25T15:42:10.043Z,0.90
2019-04-25T15:43:42.704Z,0.98
2019-04-25T15:45:15.521Z,0.70
2019-04-25T15:46:47.846Z,0.90
2019-04-25T15:48:20.199Z,0.90
2019-04-25T15:49:52.607Z,0.93
2019-04-25T15:51:25.583Z,0.88
2019-04-25T15:52:58.071Z,1.30
2019-04-25T15:54:31.698Z,0.78
2019-04-25T15:56:04.437Z,1.00
2019-04-25T15:57:36.771Z,0.80
2019-04-25T15:59:09.195Z,0.93
2019-04-25T16:00:41.627Z,0.85
2019-04-25T16:02:16.305Z,1.10
2019-04-25T16:03:52.378Z,1.05
2019-04-25T16:05:23.998Z,1.22
2019-04-25T16:06:56.739Z,0.80
2019-04-25T16:08:29.232Z,1.10
2019-04-25T16:10:01.772Z,0.75
2019-04-25T16:11:35.384Z,0.90
2019-04-25T16:13:11.338Z,1.22
2019-04-25T16:14:43.967Z,0.80
2019-04-25T16:16:16.556Z,0.88
2019-04-25T16:17:50.631Z,0.70
2019-04-25T16:19:23.046Z,0.70
2019-04-25T16:20:55.379Z,0.72
2019-04-25T16:22:28.012Z,0.90
2019-04-25T16:24:01.416Z,0.85
2019-04-25T16:25:35.506Z,0.82
2019-04-25T16:27:08.723Z,1.10
2019-04-25T16:28:42.361Z,0.88
2019-04-25T16:30:14.800Z,1.00
2019-04-25T16:33:58.075Z,1.02
2019-04-25T16:37:41.333Z,1.07
2019-04-25T16:39:30.986Z,1.10
2019-04-25T16:41:07.170Z,1.10
2019-04-25T16:42:39.845Z,1.10
2019-04-25T16:44:12.324Z,1.02
2019-04-25T16:45:44.727Z,0.80
2019-04-25T16:47:17.123Z,1.10
2019-04-25T16:48:49.587Z,1.00
2019-04-25T16:50:22.000Z,1.00
2019-04-25T16:51:54.479Z,1.20
2019-04-25T16:53:26.879Z,1.00
2019-04-25T16:54:59.234Z,1.00
2019-04-25T16:56:32.467Z,1.27
2019-04-25T16:58:05.016Z,1.02
2019-04-25T16:59:37.714Z,1.00
2019-04-25T17:01:10.390Z,1.40
2019-04-25T17:02:42.829Z,1.00
2019-04-25T17:04:15.167Z,1.37
2019-04-25T17:05:47.706Z,1.10
2019-04-25T17:07:20.180Z,1.07
2019-04-25T17:08:52.594Z,0.90
2019-04-25T17:10:25.113Z,1.07
2019-04-25T17:11:58.101Z,1.22
2019-04-25T17:13:31.147Z,1.20
2019-04-25T17:15:04.637Z,1.10
2019-04-25T17:16:37.235Z,1.10
2019-04-25T17:18:09.665Z,1.10
2019-04-25T17:19:42.319Z,0.98
2019-04-25T17:21:16.535Z,0.98
2019-04-25T17:22:49.336Z,1.10
2019-04-25T17:24:21.722Z,1.10
2019-04-25T17:25:54.171Z,1.47
2019-04-25T17:27:26.600Z,1.27
2019-04-25T17:28:59.072Z,2.02
2019-04-25T17:30:31.420Z,1.50
2019-04-25T17:32:03.855Z,1.20
2019-04-25T17:33:36.349Z,1.30
2019-04-25T17:35:08.814Z,1.20
2019-04-25T17:36:41.178Z,1.15
2019-04-25T17:38:13.683Z,1.40
2019-04-25T17:39:46.167Z,1.42
2019-04-25T17:41:18.624Z,1.37
2019-04-25T17:42:51.098Z,1.10
2019-04-25T17:44:23.513Z,1.15
2019-04-25T17:45:55.935Z,1.07
2019-04-25T17:47:28.286Z,0.90
2019-04-25T17:49:00.796Z,1.15
2019-04-25T17:50:34.247Z,1.27
2019-04-25T17:52:06.809Z,1.37
2019-04-25T17:53:39.177Z,1.10
2019-04-25T17:55:11.589Z,1.00
2019-04-25T17:56:44.081Z,1.10
2019-04-25T17:58:16.530Z,1.12
2019-04-25T17:59:48.909Z,1.10
2019-04-25T18:01:21.323Z,1.05
2019-04-25T18:02:59.038Z,1.20
2019-04-25T18:04:27.783Z,1.02
2019-04-25T18:06:00.252Z,2.02
2019-04-25T18:07:33.046Z,1.55
2019-04-25T18:09:06.559Z,1.65
2019-04-25T18:10:38.963Z,1.10
2019-04-25T18:12:11.375Z,1.42
2019-04-25T18:13:43.819Z,1.75
2019-04-25T18:15:16.283Z,2.52
2019-04-25T18:16:48.802Z,1.20
2019-04-25T18:18:21.396Z,1.25
2019-04-25T18:19:53.799Z,1.20
2019-04-25T18:21:26.207Z,1.20
2019-04-25T18:22:58.564Z,0.90
2019-04-25T18:24:30.975Z,0.90
2019-04-25T18:26:03.479Z,0.90
2019-04-25T18:27:36.661Z,1.25
2019-04-25T18:29:10.043Z,0.95
2019-04-25T18:30:43.250Z,1.70
2019-04-25T18:32:16.023Z,1.20
2019-04-25T18:33:48.454Z,1.20
2019-04-25T18:35:20.916Z,1.00
2019-04-25T18:36:53.423Z,1.10
2019-04-25T18:38:25.824Z,1.10
2019-04-25T18:39:58.851Z,1.17
2019-04-25T18:41:31.280Z,1.05
2019-04-25T18:43:03.837Z,0.85
2019-04-25T18:44:36.709Z,0.78
2019-04-25T18:46:09.323Z,1.00
2019-04-25T18:47:42.459Z,0.90
2019-04-25T18:49:15.035Z,1.00
2019-04-25T18:50:47.419Z,0.90
2019-04-25T18:52:19.841Z,1.42
2019-04-25T18:53:52.163Z,1.00
2019-04-25T18:55:24.623Z,1.07
2019-04-25T18:56:57.037Z,1.05
2019-04-25T18:58:29.542Z,0.90
2019-04-25T19:00:01.978Z,1.30
2019-04-25T19:01:34.469Z,0.88
2019-04-25T19:03:07.062Z,1.25
2019-04-25T19:04:39.590Z,1.17
2019-04-25T19:06:12.074Z,1.10
2019-04-25T19:07:45.334Z,0.90
2019-04-25T19:09:17.866Z,1.00
2019-04-25T19:10:50.384Z,0.62
2019-04-25T19:12:22.899Z,1.00
2019-04-25T19:13:55.252Z,0.83
2019-04-25T19:15:27.684Z,1.00
2019-04-25T19:17:00.088Z,0.78
2019-04-25T19:18:32.548Z,0.85
2019-04-25T19:20:04.998Z,0.57
2019-04-25T19:21:37.360Z,0.80
2019-04-25T19:23:09.721Z,1.27
2019-04-25T19:24:45.062Z,0.70
2019-04-25T19:26:16.492Z,0.90
2019-04-25T19:27:48.987Z,0.85
2019-04-25T19:29:21.639Z,0.80
2019-04-25T19:30:54.136Z,0.72
2019-04-25T19:32:26.471Z,0.60
2019-04-25T19:33:58.948Z,1.00
2019-04-25T19:35:31.418Z,0.80
2019-04-25T19:37:03.828Z,1.07
2019-04-25T19:38:36.162Z,1.10
2019-04-25T19:40:08.811Z,0.88
2019-04-25T19:41:41.609Z,0.85
2019-04-25T19:43:14.027Z,0.82
2019-04-25T19:44:47.191Z,0.70
2019-04-25T19:46:19.699Z,0.80
2019-04-25T19:47:52.094Z,1.00
2019-04-25T19:49:24.739Z,0.90
2019-04-25T19:50:57.091Z,0.72
2019-04-25T19:52:29.767Z,0.95
2019-04-25T19:54:02.531Z,0.70
2019-04-25T19:55:35.141Z,0.80
2019-04-25T19:57:07.562Z,0.80
2019-04-25T19:58:39.891Z,0.90
2019-04-25T20:00:12.227Z,0.70
2019-04-25T20:01:45.879Z,0.75
2019-04-25T20:03:18.526Z,0.80
2019-04-25T20:04:51.204Z,0.72
2019-04-25T20:06:23.766Z,0.88
2019-04-25T20:07:56.216Z,0.80
2019-04-25T20:09:28.765Z,0.90
2019-04-25T20:11:01.546Z,0.68
2019-04-25T20:12:34.556Z,1.30
2019-04-25T20:14:06.965Z,0.88
2019-04-25T20:15:39.293Z,0.70
2019-04-25T20:17:11.743Z,0.80
2019-04-25T20:18:44.734Z,0.85
2019-04-25T20:20:18.084Z,0.80
2019-04-25T20:21:50.564Z,0.65
2019-04-25T20:23:23.179Z,0.80
2019-04-25T20:24:55.604Z,1.00
2019-04-25T20:26:28.042Z,0.80
2019-04-25T20:28:00.460Z,0.70
2019-04-25T20:29:32.867Z,0.85
2019-04-25T20:31:05.384Z,0.55
2019-04-25T20:32:37.737Z,0.70
2019-04-25T20:34:10.223Z,0.90
2019-04-25T20:35:42.694Z,0.65
2019-04-25T20:37:15.182Z,0.85
2019-04-25T20:38:47.680Z,0.72
2019-04-25T20:40:20.016Z,0.90
2019-04-25T20:41:52.370Z,0.70
2019-04-25T20:43:25.227Z,0.70
2019-04-25T20:44:57.722Z,0.80
2019-04-25T20:46:30.054Z,0.82
2019-04-25T20:48:02.548Z,0.88
2019-04-25T20:49:35.287Z,0.60
2019-04-25T20:51:07.695Z,0.65
2019-04-25T20:52:40.215Z,0.70
2019-04-25T20:54:12.650Z,0.80
2019-04-25T20:55:45.128Z,0.80
2019-04-25T20:57:17.459Z,0.45
2019-04-25T20:58:51.444Z,0.62
2019-04-25T21:00:23.777Z,0.53
2019-04-25T21:01:56.190Z,0.70